Time;durP1;ratioP1;P1;durP2;ratioP2;P2;SDS_P1;SDS_P2;PMS_P1;PMS_P2;Temp;Humidity;BMP_temperature;BMP_pressure;BME280_temperature;BME280_humidity;BME280_pressure;Samples;Min_cycle;Max_cycle;Signal;HPM_P1;HPM_P2
2021/06/14 00:00:49;;;;;;;39.10;17.62;;;;;;;16.71;100.00;99524.71;1729140;83;22554;-77
2021/06/14 00:03:55;;;;;;;44.83;17.67;;;;;;;16.71;100.00;99532.45;1729103;83;21351;-77
2021/06/14 00:07:01;;;;;;;38.78;14.98;;;;;;;16.73;100.00;99522.58;1729007;83;21743;-77
2021/06/14 00:10:06;;;;;;;35.98;17.17;;;;;;;16.75;100.00;99525.93;1729082;83;21295;-77
2021/06/14 00:13:12;;;;;;;49.63;20.92;;;;;;;16.73;100.00;99518.44;1730485;83;21830;-77
2021/06/14 00:16:20;;;;;;;42.80;20.32;;;;;;;16.68;100.00;99519.11;1730909;83;21518;-77
2021/06/14 00:19:25;;;;;;;41.80;20.48;;;;;;;16.65;100.00;99523.70;1730446;83;21307;-77
2021/06/14 00:22:31;;;;;;;46.77;19.42;;;;;;;16.60;100.00;99518.89;1730166;83;21266;-77
2021/06/14 00:25:39;;;;;;;39.58;18.50;;;;;;;16.58;100.00;99523.81;1730516;83;21165;-76
2021/06/14 00:28:47;;;;;;;37.33;19.12;;;;;;;16.56;100.00;99512.69;1730472;83;21873;-76
2021/06/14 00:31:54;;;;;;;34.80;17.25;;;;;;;16.56;100.00;99512.69;1729040;83;21192;-76
2021/06/14 00:34:59;;;;;;;40.03;18.57;;;;;;;16.54;100.00;99515.70;1730577;83;21370;-76
2021/06/14 00:38:05;;;;;;;36.83;17.90;;;;;;;16.57;100.00;99519.92;1728855;83;21201;-76
2021/06/14 00:41:11;;;;;;;38.63;18.10;;;;;;;16.59;100.00;99517.21;1729700;83;21335;-76
2021/06/14 00:44:17;;;;;;;38.73;18.70;;;;;;;16.59;100.00;99520.52;1729785;82;21213;-77
2021/06/14 00:47:21;;;;;;;40.00;19.23;;;;;;;16.59;100.00;99518.59;1729107;83;21310;-76
2021/06/14 00:50:31;;;;;;;41.28;18.48;;;;;;;16.58;100.00;99517.45;1729047;83;21323;-76
2021/06/14 00:53:38;;;;;;;41.05;19.20;;;;;;;16.54;100.00;99516.23;1729828;83;21283;-76
2021/06/14 00:56:44;;;;;;;47.58;19.82;;;;;;;16.50;100.00;99510.88;1730539;83;21311;-76
2021/06/14 00:59:50;;;;;;;39.00;17.05;;;;;;;16.47;100.00;99514.97;1730334;83;21256;-76
2021/06/14 01:02:57;;;;;;;29.70;17.05;;;;;;;16.43;100.00;99511.52;1730380;83;21722;-76
2021/06/14 01:06:06;;;;;;;42.78;19.42;;;;;;;16.40;100.00;99519.72;1730730;83;21307;-76
2021/06/14 01:09:14;;;;;;;36.30;18.60;;;;;;;16.41;100.00;99526.91;1728876;83;21255;-76
2021/06/14 01:12:20;;;;;;;36.55;16.50;;;;;;;16.40;100.00;99525.23;1729001;83;21346;-77
2021/06/14 01:15:26;;;;;;;28.87;15.68;;;;;;;16.39;100.00;99530.46;1729083;83;21240;-77
2021/06/14 01:18:36;;;;;;;41.88;17.07;;;;;;;16.40;100.00;99531.30;1730532;83;21307;-76
2021/06/14 01:21:44;;;;;;;;;;;;;;;16.41;100.00;99528.84;1732531;83;21216;-76
2021/06/14 01:25:13;;;;;;;30.00;16.67;;;;;;;16.41;100.00;99526.91;1730890;83;20204;-77
2021/06/14 01:28:19;;;;;;;24.07;14.23;;;;;;;16.41;100.00;99527.45;1730727;83;21342;-76
2021/06/14 01:31:29;;;;;;;23.60;14.05;;;;;;;16.37;100.00;99529.84;1730154;83;21878;-76
2021/06/14 01:34:28;;;;;;;24.43;13.95;;;;;;;16.25;100.00;99537.23;1730590;83;21305;-76
2021/06/14 01:37:33;;;;;;;38.40;17.05;;;;;;;16.17;100.00;99538.92;1730886;83;21318;-76
2021/06/14 01:40:39;;;;;;;33.38;16.87;;;;;;;16.14;100.00;99537.99;1729009;83;21354;-77
2021/06/14 01:43:46;;;;;;;32.03;15.43;;;;;;;16.14;100.00;99553.16;1729156;83;21380;-76
2021/06/14 01:46:52;;;;;;;32.28;14.40;;;;;;;16.15;100.00;99554.88;1730667;83;21213;-76
2021/06/14 01:49:59;;;;;;;34.10;16.42;;;;;;;16.18;100.00;99558.53;1730515;83;21295;-76
2021/06/14 01:53:05;;;;;;;33.92;16.07;;;;;;;16.19;100.00;99556.10;1729038;83;21953;-76
2021/06/14 01:56:14;;;;;;;29.77;16.62;;;;;;;16.24;100.00;99555.71;1730407;83;21315;-77
2021/06/14 01:59:35;;;;;;;30.97;14.90;;;;;;;16.30;100.00;99562.21;1730623;83;21299;-76
2021/06/14 02:02:42;;;;;;;29.65;15.75;;;;;;;16.33;100.00;99560.38;1729474;83;21260;-77
2021/06/14 02:06:08;;;;;;;26.12;15.32;;;;;;;16.34;100.00;99562.90;1731404;83;21320;-77
2021/06/14 02:09:20;;;;;;;27.10;14.10;;;;;;;16.35;100.00;99560.97;1730120;83;21331;-76
2021/06/14 02:12:25;;;;;;;29.92;15.00;;;;;;;16.38;100.00;99567.96;1729814;83;21307;-76
2021/06/14 02:15:31;;;;;;;25.43;15.03;;;;;;;16.42;100.00;99570.53;1730576;83;21244;-76
2021/06/14 02:18:38;;;;;;;46.13;16.77;;;;;;;16.45;100.00;99570.08;1729259;83;21311;-77
2021/06/14 02:21:43;;;;;;;42.30;18.02;;;;;;;16.52;100.00;99562.03;1730379;83;21339;-76
2021/06/14 02:24:50;;;;;;;38.35;18.55;;;;;;;16.56;100.00;99567.39;1761069;81;21338;-77
2021/06/14 02:27:55;;;;;;;47.27;20.95;;;;;;;16.58;98.72;99569.37;1728976;83;21308;-76
2021/06/14 02:31:01;;;;;;;53.87;16.35;;;;;;;16.60;98.13;99576.86;1729256;83;21910;-77
2021/06/14 02:34:11;;;;;;;24.10;12.68;;;;;;;16.64;98.00;99577.25;1730415;83;21842;-77
2021/06/14 02:37:16;;;;;;;36.55;11.22;;;;;;;16.64;98.23;99584.69;1730598;83;21393;-77
2021/06/14 02:40:23;;;;;;;57.83;13.32;;;;;;;16.59;99.02;99579.88;1729513;83;21869;-77
2021/06/14 02:43:29;;;;;;;31.45;11.88;;;;;;;16.60;100.00;99582.39;1729322;83;21339;-76
2021/06/14 02:46:35;;;;;;;22.77;12.25;;;;;;;16.66;100.00;99585.32;1729896;81;21359;-76
2021/06/14 02:49:43;;;;;;;18.80;10.93;;;;;;;16.68;100.00;99582.61;1759174;81;21302;-76
2021/06/14 02:52:48;;;;;;;21.70;12.98;;;;;;;16.75;100.00;99585.30;1734306;82;21209;-77
2021/06/14 02:56:04;;;;;;;39.53;14.85;;;;;;;16.74;100.00;99588.60;1758240;81;21330;-76
2021/06/14 02:59:11;;;;;;;27.82;13.65;;;;;;;16.71;100.00;99586.84;1735952;82;21324;-77
2021/06/14 03:02:16;;;;;;;27.55;14.25;;;;;;;16.73;100.00;99584.16;1758841;81;21326;-76
2021/06/14 03:05:15;;;;;;;27.75;15.63;;;;;;;16.82;100.00;99584.68;1711821;82;21197;-78
2021/06/14 03:08:23;;;;;;;24.20;14.40;;;;;;;16.88;100.00;99580.97;1728884;83;21782;-78
2021/06/14 03:11:33;;;;;;;32.23;15.95;;;;;;;16.96;100.00;99583.41;1718259;83;21356;-78
2021/06/14 03:14:40;;;;;;;38.55;16.65;;;;;;;17.07;100.00;99581.20;1743957;81;21298;-77
2021/06/14 03:17:46;;;;;;;35.95;16.23;;;;;;;17.20;100.00;99585.69;1732051;82;21184;-77
2021/06/14 03:20:52;;;;;;;36.95;16.00;;;;;;;17.33;100.00;99574.97;1735731;82;21310;-77
2021/06/14 03:23:59;;;;;;;41.28;17.77;;;;;;;17.47;100.00;99578.34;1735029;82;21405;-77
2021/06/14 03:27:05;;;;;;;43.85;18.32;;;;;;;17.56;100.00;99578.30;1727598;83;21381;-77
2021/06/14 03:30:10;;;;;;;33.48;16.52;;;;;;;17.60;100.00;99576.73;1727827;83;21338;-76
2021/06/14 03:33:15;;;;;;;47.90;20.27;;;;;;;17.68;100.00;99561.69;1754934;81;21277;-77
2021/06/14 03:36:21;;;;;;;61.25;22.85;;;;;;;17.72;100.00;99569.81;1739436;81;21703;-77
2021/06/14 03:39:28;;;;;;;49.58;24.55;;;;;;;17.71;100.00;99568.13;1718378;82;21284;-77
2021/06/14 03:42:34;;;;;;;58.98;26.37;;;;;;;17.73;100.00;99572.88;1745369;81;21299;-77
2021/06/14 03:45:40;;;;;;;63.28;25.43;;;;;;;17.69;100.00;99577.20;1745829;81;21838;-77
2021/06/14 03:48:47;;;;;;;65.00;26.17;;;;;;;17.66;100.00;99577.16;1735506;81;22276;-76
2021/06/14 03:51:52;;;;;;;47.98;22.30;;;;;;;17.63;100.00;99577.08;1716025;83;21291;-76
2021/06/14 03:54:58;;;;;;;80.50;30.48;;;;;;;17.64;100.00;99575.15;1733895;82;21715;-77
2021/06/14 03:58:04;;;;;;;63.80;25.55;;;;;;;17.70;100.00;99585.81;1722125;82;21221;-77
2021/06/14 04:01:08;;;;;;;58.78;23.83;;;;;;;17.68;100.00;99586.58;1732837;82;21306;-77
2021/06/14 04:07:22;;;;;;;60.23;25.52;;;;;;;17.72;100.00;99591.94;1719330;83;21363;-76
2021/06/14 04:10:27;;;;;;;88.37;38.55;;;;;;;17.75;100.00;99593.72;1719346;83;21196;-77
2021/06/14 04:13:34;;;;;;;69.65;30.37;;;;;;;17.79;100.00;99596.86;1742943;82;21770;-77
2021/06/14 04:16:40;;;;;;;47.88;21.23;;;;;;;17.82;100.00;99599.12;1725292;83;21283;-77
2021/06/14 04:19:46;;;;;;;36.08;16.87;;;;;;;17.84;100.00;99596.42;1740413;82;21280;-77
2021/06/14 04:22:52;;;;;;;62.93;28.85;;;;;;;17.90;100.00;99597.37;1732626;82;21295;-77
2021/06/14 04:25:58;;;;;;;68.55;28.42;;;;;;;17.95;100.00;99598.88;1719359;82;21187;-77
2021/06/14 04:29:03;;;;;;;57.15;22.93;;;;;;;17.96;100.00;99596.95;1710612;83;21937;-77
2021/06/14 04:32:08;;;;;;;53.45;21.70;;;;;;;18.02;100.00;99594.08;1719385;82;21180;-77
2021/06/14 04:35:14;;;;;;;40.25;19.20;;;;;;;18.14;100.00;99600.41;1718004;83;21266;-76
2021/06/14 04:38:20;;;;;;;23.30;11.65;;;;;;;18.28;100.00;99599.61;1715971;83;21160;-76
2021/06/14 04:41:26;;;;;;;22.35;9.75;;;;;;;18.43;100.00;99605.17;1748991;82;21822;-77
2021/06/14 04:44:32;;;;;;;16.23;7.60;;;;;;;18.49;100.00;99609.20;1735931;82;21177;-77
2021/06/14 04:47:37;;;;;;;8.68;6.20;;;;;;;18.57;100.00;99612.95;1694633;83;21181;-77
2021/06/14 04:50:42;;;;;;;10.90;5.37;;;;;;;18.72;100.00;99604.14;1714946;82;21612;-76
2021/06/14 04:53:50;;;;;;;11.18;4.85;;;;;;;19.05;100.00;99607.55;1750740;81;21786;-77
2021/06/14 04:56:55;;;;;;;4.92;3.70;;;;;;;19.54;100.00;99606.48;1752229;81;21263;-76
2021/06/14 05:00:01;;;;;;;10.65;4.22;;;;;;;19.90;100.00;99612.61;1764481;80;21184;-76
2021/06/14 05:03:06;;;;;;;5.72;3.80;;;;;;;20.10;99.69;99613.48;1741567;80;21326;-77
2021/06/14 05:06:12;;;;;;;8.95;4.30;;;;;;;20.21;96.70;99617.23;1717735;81;21831;-77
2021/06/14 05:09:18;;;;;;;6.05;3.90;;;;;;;20.35;95.19;99625.48;1752365;80;21317;-78
2021/06/14 05:12:25;;;;;;;12.07;4.28;;;;;;;20.53;93.32;99629.38;1725511;81;21242;-78
2021/06/14 05:15:34;;;;;;;9.35;4.05;;;;;;;20.64;91.48;99633.11;1735863;81;21236;-78
2021/06/14 05:18:40;;;;;;;8.45;4.05;;;;;;;20.61;90.22;99630.32;1752409;80;21219;-78
2021/06/14 05:21:49;;;;;;;8.53;3.90;;;;;;;20.57;89.85;99645.83;1746558;80;21310;-78
2021/06/14 05:24:56;;;;;;;7.05;4.00;;;;;;;20.44;89.89;99651.72;1739856;80;21153;-79
2021/06/14 05:28:02;;;;;;;9.50;4.83;;;;;;;20.34;91.32;99655.75;1722480;81;21325;-79
2021/06/14 05:31:09;;;;;;;6.78;4.70;;;;;;;20.40;92.75;99661.11;1737634;80;21665;-77
2021/06/14 05:34:35;;;;;;;10.78;4.42;;;;;;;20.49;91.50;99653.77;1743282;80;21329;-77
2021/06/14 05:37:44;;;;;;;10.25;4.60;;;;;;;20.50;90.45;99655.44;1680497;85;21817;-78
2021/06/14 05:40:49;;;;;;;12.60;4.80;;;;;;;20.56;90.35;99655.78;1688164;83;21789;-79
2021/06/14 05:43:56;;;;;;;9.23;4.22;;;;;;;20.65;90.33;99664.83;1687242;84;21765;-78
2021/06/14 05:47:01;;;;;;;5.62;3.65;;;;;;;20.75;89.24;99664.12;1643758;85;21919;-79
2021/06/14 05:50:07;;;;;;;6.37;3.55;;;;;;;20.82;89.05;99668.08;1673839;84;21192;-77
2021/06/14 05:53:13;;;;;;;7.60;3.75;;;;;;;20.90;88.99;99670.41;1671266;83;21341;-78
2021/06/14 05:56:18;;;;;;;6.70;3.27;;;;;;;21.06;87.03;99675.03;1672737;84;21880;-78
2021/06/14 05:59:23;;;;;;;8.35;3.60;;;;;;;21.19;85.52;99681.59;1671591;83;21207;-79
2021/06/14 06:02:29;;;;;;;7.62;3.67;;;;;;;21.33;85.73;99685.38;1671235;83;21374;-79
2021/06/14 06:05:35;;;;;;;4.97;3.08;;;;;;;21.44;84.08;99681.03;1674136;83;21607;-79
2021/06/14 06:08:42;;;;;;;6.05;3.62;;;;;;;21.59;84.06;99683.67;1672637;84;21272;-78
2021/06/14 06:11:49;;;;;;;6.42;3.80;;;;;;;21.76;83.49;99689.13;1672217;84;21704;-78
2021/06/14 06:14:56;;;;;;;7.37;3.15;;;;;;;21.98;82.49;99686.27;1672754;83;21619;-78
2021/06/14 06:18:03;;;;;;;6.10;3.05;;;;;;;22.15;81.29;99689.19;1673975;83;21365;-79
2021/06/14 06:21:10;;;;;;;5.35;2.55;;;;;;;22.37;79.74;99687.68;1673996;84;21342;-79
2021/06/14 06:24:17;;;;;;;4.47;2.70;;;;;;;22.61;80.23;99688.09;1671781;84;21960;-78
2021/06/14 06:27:23;;;;;;;9.73;3.37;;;;;;;22.82;77.64;99689.58;1675843;83;21314;-80
2021/06/14 06:30:31;;;;;;;4.92;3.02;;;;;;;22.83;75.46;99691.28;1674637;84;21338;-78
2021/06/14 06:33:41;;;;;;;6.80;3.17;;;;;;;22.77;76.31;99695.13;1675257;84;21335;-78
2021/06/14 06:36:46;;;;;;;5.95;3.05;;;;;;;22.91;77.29;99697.20;1675848;84;21253;-79
2021/06/14 06:39:54;;;;;;;5.42;3.33;;;;;;;23.14;76.19;99693.09;1679176;84;21381;-78
2021/06/14 06:43:00;;;;;;;5.22;3.25;;;;;;;23.20;73.37;99696.75;1675352;84;21959;-78
2021/06/14 06:46:05;;;;;;;5.92;3.10;;;;;;;23.11;74.70;99697.00;1676060;84;21395;-80
2021/06/14 06:49:10;;;;;;;8.75;3.80;;;;;;;23.23;74.77;99696.75;1674888;84;21408;-78
2021/06/14 06:52:09;;;;;;;10.40;3.83;;;;;;;23.32;73.36;99704.86;1674222;83;21253;-78
2021/06/14 06:55:22;;;;;;;7.95;4.62;;;;;;;23.33;72.78;99701.78;1675172;84;21238;-79
2021/06/14 06:58:26;;;;;;;17.37;8.45;;;;;;;23.46;72.90;99711.03;1644466;85;21225;-77
2021/06/14 07:01:34;;;;;;;19.30;8.10;;;;;;;23.61;71.38;99701.02;1671984;84;21414;-79
2021/06/14 07:04:41;;;;;;;17.77;9.18;;;;;;;23.59;70.21;99711.63;1671540;84;21216;-78
2021/06/14 07:07:46;;;;;;;17.07;8.30;;;;;;;23.47;71.49;99714.09;1672522;84;21406;-78
2021/06/14 07:11:03;;;;;;;14.13;7.42;;;;;;;23.36;71.35;99711.58;1822022;76;22577;-78
2021/06/14 07:14:16;;;;;;;9.58;4.92;;;;;;;23.33;71.59;99710.16;1787010;79;21149;-78
2021/06/14 07:17:23;;;;;;;8.85;4.40;;;;;;;23.38;71.27;99712.13;1784696;79;21319;-78
2021/06/14 07:20:25;;;;;;;9.60;5.45;;;;;;;23.37;69.91;99712.69;1787800;79;21572;-78
2021/06/14 07:23:30;;;;;;;25.45;12.30;;;;;;;23.35;70.42;99714.09;1788180;79;21164;-79
2021/06/14 07:26:35;;;;;;;11.18;6.67;;;;;;;23.47;70.01;99717.45;1792750;79;21334;-78
2021/06/14 07:29:41;;;;;;;15.32;7.10;;;;;;;23.57;69.74;99716.10;1779649;79;21279;-79
2021/06/14 07:32:46;;;;;;;14.50;7.50;;;;;;;23.58;69.13;99723.36;1775074;80;21268;-78
2021/06/14 07:35:56;;;;;;;;;;;;;;;23.60;69.43;99725.86;1778926;80;21287;-79
2021/06/14 07:39:00;;;;;;;16.35;6.72;;;;;;;23.51;70.15;99735.89;1772628;80;20780;-80
2021/06/14 07:42:08;;;;;;;33.50;15.35;;;;;;;23.51;71.38;99730.30;1772817;80;21373;-78
2021/06/14 07:45:21;;;;;;;33.18;14.55;;;;;;;23.70;70.21;99733.72;1776127;79;21647;-79
2021/06/14 07:48:22;;;;;;;24.23;10.70;;;;;;;23.84;70.12;99733.19;1770558;80;21243;-78
2021/06/14 07:51:28;;;;;;;29.07;10.88;;;;;;;23.98;69.59;99731.52;1773008;79;22635;-79
2021/06/14 07:54:35;;;;;;;22.05;11.15;;;;;;;24.09;69.06;99726.23;1774304;79;21342;-78
2021/06/14 07:57:41;;;;;;;19.35;9.65;;;;;;;24.10;67.37;99736.28;1772713;80;21349;-78
2021/06/14 08:00:46;;;;;;;19.67;10.40;;;;;;;24.01;67.33;99724.55;1774768;79;21294;-79
2021/06/14 08:03:53;;;;;;;24.35;11.03;;;;;;;24.01;68.90;99732.36;1772580;79;21945;-78
2021/06/14 08:06:59;;;;;;;25.32;12.88;;;;;;;24.17;69.34;99729.84;1778758;79;21196;-78
2021/06/14 08:10:05;;;;;;;17.80;10.82;;;;;;;24.32;67.72;99733.17;1735926;80;21348;-78
2021/06/14 08:13:10;;;;;;;18.92;7.37;;;;;;;24.43;68.00;99735.45;1710548;83;21387;-77
2021/06/14 08:16:16;;;;;;;16.57;6.92;;;;;;;24.47;67.15;99732.38;1727279;81;21349;-78
2021/06/14 08:22:48;;;;;;;15.83;7.72;;;;;;;24.52;66.51;99730.97;1718089;82;21273;-78
2021/06/14 08:25:42;;;;;;;8.63;5.22;;;;;;;24.48;66.16;99741.03;1732810;81;21862;-78
2021/06/14 08:28:48;;;;;;;7.75;5.60;;;;;;;24.51;68.09;99730.66;1712919;83;21399;-78
2021/06/14 08:31:53;;;;;;;11.80;5.17;;;;;;;24.57;66.80;99728.16;1731671;81;21878;-78
2021/06/14 08:35:00;;;;;;;8.05;5.45;;;;;;;24.61;67.45;99725.08;1704918;82;21355;-78
2021/06/14 08:38:05;;;;;;;12.33;6.08;;;;;;;24.67;65.95;99738.48;1734873;82;21330;-78
2021/06/14 08:41:11;;;;;;;14.10;5.47;;;;;;;24.68;64.87;99738.75;1715305;82;21780;-79
2021/06/14 08:44:18;;;;;;;10.68;5.00;;;;;;;24.70;65.93;99742.09;1733880;81;21790;-77
2021/06/14 08:47:27;;;;;;;7.10;4.58;;;;;;;24.79;66.29;99736.75;1711895;82;21268;-78
2021/06/14 08:50:34;;;;;;;10.70;4.20;;;;;;;24.77;64.75;99738.45;1715193;83;21272;-79
2021/06/14 08:53:39;;;;;;;4.58;2.52;;;;;;;24.66;65.87;99747.43;1737359;81;21282;-78
2021/06/14 08:56:46;;;;;;;6.97;4.17;;;;;;;24.76;66.55;99751.33;1715326;83;21328;-78
2021/06/14 08:59:52;;;;;;;8.68;2.90;;;;;;;24.98;65.38;99755.45;1727250;81;21308;-78
2021/06/14 09:02:58;;;;;;;6.53;2.72;;;;;;;25.20;64.67;99756.50;1725606;83;21182;-77
2021/06/14 09:06:04;;;;;;;6.12;2.30;;;;;;;25.29;63.82;99760.12;1728690;81;21170;-78
2021/06/14 09:09:15;;;;;;;7.37;2.77;;;;;;;25.30;63.33;99758.98;1725954;83;21324;-78
2021/06/14 09:12:22;;;;;;;5.35;2.30;;;;;;;25.23;63.99;99760.14;1724916;82;21216;-77
2021/06/14 09:15:33;;;;;;;7.60;4.25;;;;;;;25.25;64.58;99758.45;1725041;83;21233;-79
2021/06/14 09:18:38;;;;;;;12.25;4.60;;;;;;;25.36;63.39;99760.62;1722294;81;21323;-79
2021/06/14 09:21:45;;;;;;;8.28;2.92;;;;;;;25.40;62.24;99749.97;1719086;82;21372;-79
2021/06/14 09:25:18;;;;;;;3.92;2.20;;;;;;;25.31;61.73;99761.48;1725518;83;21241;-78
2021/06/14 09:28:23;;;;;;;4.22;2.15;;;;;;;25.27;62.50;99758.18;1724129;81;21210;-79
2021/06/14 09:31:29;;;;;;;3.83;2.22;;;;;;;25.53;64.15;99761.67;1718979;81;21347;-79
2021/06/14 09:34:52;;;;;;;3.67;2.55;;;;;;;25.59;62.09;99766.94;1715522;81;21319;-79
2021/06/14 09:38:14;;;;;;;5.72;1.98;;;;;;;25.49;61.14;99767.00;1716561;83;21178;-77
2021/06/14 09:41:26;;;;;;;6.97;2.22;;;;;;;25.38;61.68;99763.99;1721693;83;21321;-78
2021/06/14 09:44:37;;;;;;;6.72;1.80;;;;;;;25.31;61.64;99758.69;1729723;83;21368;-78
2021/06/14 09:47:42;;;;;;;3.40;1.80;;;;;;;25.38;60.67;99763.42;1720504;81;21346;-78
2021/06/14 09:50:50;;;;;;;9.60;2.92;;;;;;;25.43;60.50;99765.37;1723947;83;21275;-78
2021/06/14 09:54:02;;;;;;;3.27;2.50;;;;;;;25.43;59.83;99759.77;1723120;83;21303;-78
2021/06/14 09:57:11;;;;;;;6.25;2.30;;;;;;;25.41;60.44;99756.44;1721733;83;21674;-77
2021/06/14 10:00:26;;;;;;;2.75;1.65;;;;;;;25.36;60.30;99762.02;1726658;81;22622;-77
2021/06/14 10:03:52;;;;;;;2.80;1.87;;;;;;;25.28;60.88;99765.45;1725395;83;21303;-78
2021/06/14 10:06:58;;;;;;;4.45;2.08;;;;;;;25.28;60.54;99761.25;1707151;83;21280;-78
2021/06/14 10:10:03;;;;;;;6.33;2.17;;;;;;;25.28;57.69;99764.87;1729741;83;21296;-78
2021/06/14 10:13:07;;;;;;;5.80;2.37;;;;;;;25.36;59.06;99760.62;1727795;82;21173;-78
2021/06/14 10:16:19;;;;;;;8.28;2.90;;;;;;;25.62;56.95;99768.34;1730835;82;21299;-78
2021/06/14 10:19:25;;;;;;;9.73;4.95;;;;;;;25.78;56.08;99760.14;1735120;82;21158;-75
2021/06/14 10:22:31;;;;;;;11.10;5.03;;;;;;;25.74;56.17;99764.08;1731388;81;21271;-77
2021/06/14 10:25:36;;;;;;;6.97;3.67;;;;;;;25.60;56.37;99761.64;1731115;82;21299;-77
2021/06/14 10:28:41;;;;;;;3.15;2.27;;;;;;;25.44;56.01;99765.63;1733020;82;21327;-77
2021/06/14 10:31:47;;;;;;;7.25;1.92;;;;;;;25.19;56.95;99763.23;1734436;81;21273;-77
2021/06/14 10:34:53;;;;;;;7.53;1.77;;;;;;;24.89;59.33;99763.29;1733565;82;21253;-77
2021/06/14 10:37:59;;;;;;;5.75;2.10;;;;;;;24.69;61.79;99760.83;1727976;82;21299;-77
2021/06/14 10:41:05;;;;;;;8.40;2.60;;;;;;;24.55;62.46;99759.73;1731044;82;21768;-78
2021/06/14 10:44:12;;;;;;;8.68;2.40;;;;;;;24.44;63.48;99763.67;1707863;82;21284;-78
2021/06/14 10:47:17;;;;;;;4.55;2.65;;;;;;;24.32;64.74;99767.27;1730770;82;21808;-78
2021/06/14 10:50:39;;;;;;;8.63;3.10;;;;;;;24.22;65.40;99763.36;1733089;81;21164;-78
2021/06/14 10:53:52;;;;;;;9.35;3.33;;;;;;;24.20;66.21;99759.19;1731270;81;21303;-78
2021/06/14 10:56:56;;;;;;;7.70;3.33;;;;;;;24.20;67.57;99763.38;1729018;81;21761;-77
2021/06/14 11:00:01;;;;;;;7.35;3.17;;;;;;;24.16;65.79;99774.83;1732204;82;21835;-77
2021/06/14 11:03:15;;;;;;;6.58;3.20;;;;;;;24.15;65.89;99772.59;1726780;82;21944;-78
2021/06/14 11:06:35;;;;;;;8.45;2.90;;;;;;;24.10;64.09;99771.20;1688022;81;21306;-78
2021/06/14 11:09:50;;;;;;;5.53;2.17;;;;;;;24.05;64.43;99763.38;1733824;82;21260;-78
2021/06/14 11:12:56;;;;;;;3.10;1.62;;;;;;;24.04;65.29;99763.91;1730890;82;21573;-78
2021/06/14 11:16:06;;;;;;;3.55;1.70;;;;;;;24.00;65.65;99764.22;1740551;82;21306;-78
2021/06/14 11:19:12;;;;;;;9.00;2.08;;;;;;;23.98;65.88;99777.60;1738631;82;21149;-78
2021/06/14 11:22:18;;;;;;;4.47;2.22;;;;;;;24.01;66.69;99772.87;1734499;81;21261;-78
2021/06/14 11:25:31;;;;;;;2.80;1.75;;;;;;;24.06;66.63;99770.64;1732772;82;21161;-77
2021/06/14 11:28:42;;;;;;;4.37;1.57;;;;;;;24.10;66.71;99762.82;1738482;82;21180;-77
2021/06/14 11:31:48;;;;;;;3.62;1.65;;;;;;;24.14;66.49;99758.36;1724556;82;21168;-78
2021/06/14 11:35:01;;;;;;;2.83;1.82;;;;;;;24.17;66.56;99763.36;1729755;81;21290;-77
2021/06/14 11:38:08;;;;;;;7.72;1.85;;;;;;;24.20;66.89;99761.98;1722883;82;21323;-78
2021/06/14 11:41:14;;;;;;;4.80;1.67;;;;;;;24.26;66.38;99759.45;1724328;82;21169;-77
2021/06/14 11:44:35;;;;;;;3.65;1.65;;;;;;;24.34;66.38;99756.67;1731460;81;21851;-78
2021/06/14 11:47:41;;;;;;;4.50;1.90;;;;;;;24.39;65.35;99756.70;1725865;82;21366;-78
2021/06/14 11:50:47;;;;;;;1.92;1.70;;;;;;;24.41;64.23;99750.25;1698271;82;21314;-77
2021/06/14 11:54:00;;;;;;;5.42;1.65;;;;;;;24.45;63.62;99740.19;1731590;82;21759;-78
2021/06/14 11:57:07;;;;;;;6.92;2.00;;;;;;;24.48;63.36;99741.87;1726229;82;21279;-76
2021/06/14 12:00:20;;;;;;;6.37;2.12;;;;;;;24.52;63.28;99737.95;1730318;82;21196;-77
2021/06/14 12:03:31;;;;;;;3.08;1.70;;;;;;;24.54;63.30;99737.66;1730907;81;21305;-77
2021/06/14 12:06:36;;;;;;;5.10;2.15;;;;;;;24.57;62.69;99742.14;1731156;82;21255;-78
2021/06/14 12:09:42;;;;;;;6.55;2.00;;;;;;;24.65;62.59;99755.52;1729051;82;21149;-78
2021/06/14 12:12:47;;;;;;;6.58;1.85;;;;;;;24.73;61.99;99749.92;1701418;82;21259;-78
2021/06/14 12:15:53;;;;;;;7.42;2.10;;;;;;;24.83;60.93;99740.66;1713289;82;21763;-79
2021/06/14 12:19:06;;;;;;;2.90;1.70;;;;;;;24.92;59.76;99748.75;1713208;83;21216;-77
2021/06/14 12:22:13;;;;;;;3.70;1.87;;;;;;;25.09;60.04;99750.69;1710511;82;21620;-78
2021/06/14 12:25:21;;;;;;;4.70;2.12;;;;;;;25.23;60.31;99750.34;1717404;83;21346;-78
2021/06/14 12:28:28;;;;;;;2.17;1.52;;;;;;;25.34;60.05;99751.69;1715363;83;21740;-78
2021/06/14 12:31:33;;;;;;;5.92;2.10;;;;;;;25.40;58.97;99745.77;1715091;83;21272;-78
2021/06/14 12:34:39;;;;;;;5.75;2.00;;;;;;;25.43;58.70;99735.97;1714773;83;22183;-78
2021/06/14 12:37:45;;;;;;;3.30;1.60;;;;;;;25.52;59.86;99739.84;1716032;83;21287;-79
2021/06/14 12:40:50;;;;;;;4.42;1.77;;;;;;;25.61;57.58;99729.70;1710384;83;21149;-77
2021/06/14 12:43:58;;;;;;;1.98;1.32;;;;;;;25.70;57.01;99734.97;1714890;83;21303;-77
2021/06/14 12:47:04;;;;;;;3.83;1.87;;;;;;;25.81;56.28;99737.73;1721740;83;21280;-78
2021/06/14 12:50:09;;;;;;;3.70;1.98;;;;;;;25.89;55.82;99739.92;1717165;83;21326;-78
2021/06/14 12:53:16;;;;;;;4.45;2.15;;;;;;;25.91;55.33;99742.69;1710293;83;21646;-77
2021/06/14 12:56:21;;;;;;;4.20;2.37;;;;;;;25.87;54.47;99733.19;1714413;83;21930;-78
2021/06/14 12:59:26;;;;;;;7.72;2.50;;;;;;;25.78;55.18;99734.93;1719294;83;21931;-78
2021/06/14 13:02:32;;;;;;;6.75;2.95;;;;;;;25.70;55.51;99734.97;1705762;83;21851;-78
2021/06/14 13:05:48;;;;;;;7.25;3.37;;;;;;;25.64;55.23;99732.47;1713383;83;21307;-78
2021/06/14 13:08:53;;;;;;;9.33;2.98;;;;;;;25.63;55.48;99733.04;1709606;83;21316;-79
2021/06/14 13:11:58;;;;;;;8.55;3.20;;;;;;;25.63;56.05;99730.23;1717085;83;21256;-78
2021/06/14 13:15:23;;;;;;;6.08;2.67;;;;;;;25.67;56.64;99724.34;1710865;83;21197;-78
2021/06/14 13:18:28;;;;;;;11.08;2.72;;;;;;;25.76;57.40;99733.56;1707416;83;21964;-78
2021/06/14 13:21:39;;;;;;;4.08;2.22;;;;;;;25.82;57.19;99727.63;1711767;83;21229;-77
2021/06/14 13:24:47;;;;;;;4.80;2.27;;;;;;;25.86;56.54;99730.69;1702178;83;21304;-78
2021/06/14 13:28:02;;;;;;;8.63;2.70;;;;;;;25.85;56.09;99731.82;1707931;83;21494;-78
2021/06/14 13:31:18;;;;;;;7.78;2.15;;;;;;;25.80;56.35;99728.48;1701993;83;21373;-78
2021/06/14 13:34:30;;;;;;;7.40;2.30;;;;;;;25.74;56.49;99731.86;1707174;83;21333;-77
2021/06/14 13:37:54;;;;;;;4.50;2.22;;;;;;;25.70;56.51;99733.57;1687807;83;22005;-77
2021/06/14 13:41:00;;;;;;;7.12;1.70;;;;;;;25.70;56.53;99720.13;1711471;83;21360;-78
2021/06/14 13:44:13;;;;;;;4.08;1.57;;;;;;;25.69;56.46;99720.70;1718559;83;21319;-79
2021/06/14 13:47:28;;;;;;;4.03;1.35;;;;;;;25.75;55.48;99722.89;1718784;83;21921;-79
2021/06/14 13:50:33;;;;;;;5.87;1.22;;;;;;;25.84;53.58;99719.78;1720906;83;21367;-78
2021/06/14 13:53:39;;;;;;;5.58;1.67;;;;;;;25.95;52.84;99724.73;1719403;83;21315;-78
2021/06/14 13:56:52;;;;;;;2.85;1.15;;;;;;;26.08;52.67;99719.87;1719487;83;21367;-78
2021/06/14 14:00:17;;;;;;;3.85;1.37;;;;;;;26.20;52.19;99716.09;1719177;83;21200;-78
2021/06/14 14:03:22;;;;;;;2.55;1.52;;;;;;;26.31;51.47;99714.62;1719575;83;21331;-78
2021/06/14 14:06:27;;;;;;;3.05;1.82;;;;;;;26.32;50.94;99707.31;1718925;83;21249;-77
2021/06/14 14:09:33;;;;;;;5.05;1.92;;;;;;;26.32;50.49;99712.09;1721040;83;21248;-77
2021/06/14 14:12:39;;;;;;;2.33;1.20;;;;;;;26.31;50.40;99706.22;1720201;82;21485;-77
2021/06/14 14:15:46;;;;;;;3.27;1.40;;;;;;;26.30;50.57;99712.94;1720231;82;21228;-78
2021/06/14 14:18:52;;;;;;;5.35;2.05;;;;;;;26.28;49.65;99705.40;1698221;84;21365;-78
2021/06/14 14:21:58;;;;;;;5.97;2.22;;;;;;;26.23;50.21;99700.11;1698300;84;21866;-78
2021/06/14 14:25:04;;;;;;;4.85;2.90;;;;;;;26.17;50.35;99699.89;1696856;84;21322;-77
2021/06/14 14:28:09;;;;;;;11.68;2.80;;;;;;;26.11;50.84;99699.67;1691700;84;21196;-78
2021/06/14 14:31:15;;;;;;;5.62;2.70;;;;;;;26.04;50.82;99692.16;1691581;85;21341;-78
2021/06/14 14:34:21;;;;;;;9.78;2.80;;;;;;;25.96;50.19;99692.78;1691469;85;21317;-77
2021/06/14 14:37:37;;;;;;;4.25;2.00;;;;;;;25.91;50.66;99698.42;1691594;85;21211;-77